Terminal Aerodrome Forecast
Issued by NWS

Home | Current Version | Previous Version | Text Only | Print | Product List | Glossary Off
Versions: 1 2 3 4 5 6 7 8 9 10 11 12 13 14 15 16 17 18 19 20 21 22 23 24 25 26 27 28

000
FTUS43 KTOP 161900 AAA
TAFFOE
TAF AMD
KFOE 161951Z 1620/1718 32014KT P6SM BKN022
     FM162200 35005KT P6SM FEW022 SCT200
     FM171500 09004KT P6SM BKN150=

USA.gov is the U.S. government's official web portal to all federal, state and local government web resources and services.